createdAt,value
2023-02-26T07:18:31.999Z,1.60
2023-02-26T07:21:00.766Z,1.48
2023-02-26T07:23:28.193Z,1.55
2023-02-26T07:25:56.448Z,1.90
2023-02-26T07:28:25.024Z,1.40
2023-02-26T07:30:56.902Z,1.45
2023-02-26T07:33:25.064Z,1.50
2023-02-26T07:35:52.343Z,1.65
2023-02-26T07:38:19.903Z,1.20
2023-02-26T07:40:47.995Z,1.48
2023-02-26T07:43:15.296Z,1.00
2023-02-26T07:45:42.567Z,1.02
2023-02-26T07:48:09.864Z,0.80
2023-02-26T07:50:37.196Z,0.60
2023-02-26T07:53:04.531Z,0.80
2023-02-26T07:55:31.928Z,0.60
2023-02-26T07:57:59.196Z,0.70
2023-02-26T08:00:26.934Z,0.70
2023-02-26T08:02:54.357Z,0.75
2023-02-26T08:05:21.649Z,0.70
2023-02-26T08:07:48.913Z,0.40
2023-02-26T08:10:16.306Z,0.70
2023-02-26T08:12:43.594Z,0.52
2023-02-26T08:15:14.403Z,0.70
2023-02-26T08:17:42.354Z,0.90
2023-02-26T08:20:12.021Z,0.50
2023-02-26T08:22:39.637Z,0.40
2023-02-26T08:25:07.992Z,0.70
2023-02-26T08:27:35.348Z,0.60
2023-02-26T08:30:05.265Z,0.50
2023-02-26T08:32:32.582Z,0.47
2023-02-26T08:34:59.951Z,0.40
2023-02-26T08:37:27.313Z,0.77
2023-02-26T08:39:54.720Z,0.60
2023-02-26T08:42:22.010Z,0.80
2023-02-26T08:44:49.462Z,0.70
2023-02-26T08:47:24.542Z,0.60
2023-02-26T08:49:55.232Z,0.40
2023-02-26T08:52:23.185Z,0.90
2023-02-26T08:54:50.801Z,0.70
2023-02-26T08:57:18.475Z,0.30
2023-02-26T08:59:45.795Z,0.40
2023-02-26T09:02:15.970Z,0.50
2023-02-26T09:04:43.255Z,0.60
2023-02-26T09:07:10.686Z,0.47
2023-02-26T09:09:37.996Z,0.77
2023-02-26T09:12:05.841Z,0.40
2023-02-26T09:14:33.149Z,0.30
2023-02-26T09:17:00.495Z,0.43
2023-02-26T09:19:27.825Z,0.60
2023-02-26T09:21:55.941Z,0.50
2023-02-26T09:24:23.541Z,0.60
2023-02-26T09:26:50.891Z,0.57
2023-02-26T09:29:18.189Z,0.77
2023-02-26T09:31:45.652Z,0.93
2023-02-26T09:34:13.756Z,1.00
2023-02-26T09:36:41.257Z,0.82
2023-02-26T09:39:08.879Z,0.85
2023-02-26T09:41:54.630Z,0.80
2023-02-26T09:44:30.531Z,0.77
2023-02-26T09:47:45.592Z,0.50
2023-02-26T09:50:28.413Z,0.50
2023-02-26T09:53:19.569Z,0.93
2023-02-26T09:55:50.794Z,1.92
2023-02-26T09:58:39.273Z,0.80
2023-02-26T10:02:10.392Z,0.68
2023-02-26T10:05:15.137Z,0.73
2023-02-26T10:08:14.396Z,0.50
2023-02-26T10:11:29.311Z,0.73
2023-02-26T10:15:13.335Z,0.90
2023-02-26T10:18:18.190Z,0.55
2023-02-26T10:20:57.990Z,0.73
2023-02-26T10:24:03.853Z,0.65
2023-02-26T10:26:50.103Z,0.52
2023-02-26T10:29:37.776Z,0.90
2023-02-26T10:32:43.313Z,0.50
2023-02-26T10:35:17.791Z,0.52
2023-02-26T10:38:18.033Z,0.50
2023-02-26T10:41:13.410Z,0.45
2023-02-26T10:44:33.535Z,0.30
2023-02-26T10:47:32.487Z,0.20
2023-02-26T10:50:17.853Z,0.50
2023-02-26T10:52:47.641Z,0.57
2023-02-26T10:56:01.855Z,0.80
2023-02-26T10:58:29.196Z,0.90
2023-02-26T11:00:57.767Z,0.63
2023-02-26T11:03:56.481Z,0.60
2023-02-26T11:06:45.611Z,0.60
2023-02-26T11:09:45.454Z,0.63
2023-02-26T11:12:15.724Z,0.77
2023-02-26T11:14:45.598Z,0.90
2023-02-26T11:17:32.354Z,0.75
2023-02-26T11:20:15.352Z,0.60
2023-02-26T11:22:53.463Z,0.57
2023-02-26T11:25:28.002Z,0.88
2023-02-26T11:28:30.107Z,0.55
2023-02-26T11:31:00.622Z,0.40
2023-02-26T11:36:20.076Z,0.50
2023-02-26T11:39:04.321Z,0.55
2023-02-26T11:41:39.536Z,0.43
2023-02-26T11:44:32.185Z,0.50
2023-02-26T11:47:03.163Z,0.70
2023-02-26T11:49:30.636Z,0.77
2023-02-26T11:52:35.854Z,0.47
2023-02-26T11:55:40.030Z,0.47
2023-02-26T11:58:24.215Z,0.45
2023-02-26T12:00:58.496Z,0.40
2023-02-26T12:03:40.946Z,0.68
2023-02-26T12:06:21.163Z,0.60
2023-02-26T12:08:49.091Z,0.38
2023-02-26T12:12:22.313Z,0.50
2023-02-26T12:15:36.247Z,0.50
2023-02-26T12:18:51.093Z,0.80
2023-02-26T12:22:00.710Z,0.43
2023-02-26T12:25:09.228Z,1.00
2023-02-26T12:28:28.746Z,0.80
2023-02-26T12:31:54.411Z,0.73
2023-02-26T12:35:26.517Z,0.50
2023-02-26T12:38:35.004Z,0.80
2023-02-26T12:41:43.062Z,0.60
2023-02-26T12:46:06.244Z,0.50
2023-02-26T12:49:30.394Z,0.80
2023-02-26T12:53:00.818Z,0.40
2023-02-26T12:56:44.825Z,0.43
2023-02-26T13:00:16.102Z,0.63
2023-02-26T13:03:50.182Z,0.65
2023-02-26T13:07:24.140Z,0.85
2023-02-26T13:10:24.284Z,0.57
2023-02-26T13:13:24.901Z,0.80
2023-02-26T13:17:20.799Z,0.70
2023-02-26T13:20:00.548Z,0.88
2023-02-26T13:22:50.136Z,0.60
2023-02-26T13:25:50.713Z,0.65
2023-02-26T13:28:40.136Z,1.00
2023-02-26T13:31:53.386Z,0.50
2023-02-26T13:35:00.966Z,0.90
2023-02-26T13:37:42.321Z,0.63
2023-02-26T13:40:50.193Z,0.70
2023-02-26T13:44:27.495Z,1.00
2023-02-26T13:47:42.799Z,0.60
2023-02-26T13:51:22.341Z,0.70
2023-02-26T13:54:00.820Z,0.43
2023-02-26T13:56:34.040Z,0.40
2023-02-26T13:59:46.859Z,0.75
2023-02-26T14:02:19.944Z,0.70
2023-02-26T14:05:00.228Z,0.40
2023-02-26T14:08:01.024Z,0.45
2023-02-26T14:13:42.061Z,0.68
2023-02-26T14:16:28.821Z,0.63
2023-02-26T14:19:33.489Z,0.55
2023-02-26T14:22:09.373Z,0.73
2023-02-26T14:24:44.511Z,0.77
2023-02-26T14:27:11.548Z,0.50
2023-02-26T14:29:57.159Z,0.43
2023-02-26T14:33:01.454Z,0.70
2023-02-26T14:35:35.598Z,0.50
2023-02-26T14:38:36.509Z,0.50
2023-02-26T14:41:30.031Z,0.70
2023-02-26T14:44:21.823Z,0.65
2023-02-26T14:46:51.525Z,0.60
2023-02-26T14:49:38.398Z,0.40
2023-02-26T14:53:03.230Z,0.70
2023-02-26T14:56:27.125Z,0.60
2023-02-26T15:00:10.795Z,0.38
2023-02-26T15:03:20.991Z,0.40
2023-02-26T15:06:34.097Z,0.47
2023-02-26T15:09:25.640Z,0.60
2023-02-26T15:13:03.808Z,0.55
2023-02-26T15:16:38.139Z,1.08
2023-02-26T15:19:46.635Z,0.70
2023-02-26T15:23:24.999Z,0.68
2023-02-26T15:25:52.620Z,0.80
2023-02-26T15:28:42.065Z,0.60
2023-02-26T15:31:13.743Z,0.82
2023-02-26T15:33:42.473Z,0.73
2023-02-26T15:36:18.816Z,1.00
2023-02-26T15:39:00.140Z,1.05
2023-02-26T15:41:31.942Z,0.60
2023-02-26T15:44:18.923Z,0.95
2023-02-26T15:46:54.572Z,0.52
2023-02-26T15:49:41.021Z,1.27
2023-02-26T15:52:20.599Z,0.60
2023-02-26T15:55:05.806Z,0.93
2023-02-26T15:57:33.375Z,0.70
2023-02-26T16:00:18.042Z,0.95
2023-02-26T16:02:45.781Z,0.95
2023-02-26T16:05:17.021Z,1.02
2023-02-26T16:07:44.355Z,1.15
2023-02-26T16:10:40.639Z,2.10
2023-02-26T16:13:18.068Z,1.00
2023-02-26T16:15:47.458Z,1.25
2023-02-26T16:18:24.189Z,1.15
2023-02-26T16:20:58.963Z,1.52
2023-02-26T16:23:50.894Z,1.33
2023-02-26T16:26:47.023Z,1.42
2023-02-26T16:29:29.961Z,1.33
2023-02-26T16:32:02.308Z,1.42
2023-02-26T16:34:55.707Z,1.25
2023-02-26T16:37:37.773Z,1.42
2023-02-26T16:40:35.682Z,1.67
2023-02-26T16:43:49.506Z,1.30
2023-02-26T16:46:43.867Z,1.45
2023-02-26T16:49:31.615Z,1.30
2023-02-26T16:52:00.830Z,1.27
2023-02-26T16:54:43.154Z,0.90
2023-02-26T16:57:46.123Z,0.65
2023-02-26T17:00:31.603Z,0.88
2023-02-26T17:03:23.857Z,0.90
2023-02-26T17:06:20.395Z,0.75
2023-02-26T17:08:59.840Z,0.52
2023-02-26T17:11:43.456Z,1.00
2023-02-26T17:14:25.792Z,0.70
2023-02-26T17:16:53.499Z,0.80
2023-02-26T17:19:21.182Z,0.77
2023-02-26T17:21:54.775Z,0.60
2023-02-26T17:24:34.835Z,0.80
2023-02-26T17:27:05.487Z,1.10
2023-02-26T17:32:16.027Z,1.10
2023-02-26T17:34:44.835Z,1.10
2023-02-26T17:37:16.717Z,1.35
2023-02-26T17:39:45.441Z,1.42
2023-02-26T17:42:21.436Z,1.38
2023-02-26T17:44:50.366Z,1.25
2023-02-26T17:47:25.862Z,1.10
2023-02-26T17:49:54.246Z,1.20
2023-02-26T17:52:21.642Z,1.48
2023-02-26T17:54:49.037Z,1.25
2023-02-26T17:57:22.082Z,1.25
2023-02-26T17:59:49.508Z,1.33
2023-02-26T18:02:27.216Z,1.17
2023-02-26T18:04:54.923Z,1.73
2023-02-26T18:07:23.971Z,0.90
2023-02-26T18:09:51.381Z,0.90
2023-02-26T18:12:22.435Z,0.80
2023-02-26T18:14:50.243Z,1.02
2023-02-26T18:17:31.124Z,0.70
2023-02-26T18:19:58.650Z,1.40
2023-02-26T18:22:27.661Z,1.42
2023-02-26T18:24:55.878Z,1.52
2023-02-26T18:27:26.316Z,1.83
2023-02-26T18:29:54.559Z,2.38
2023-02-26T18:32:25.376Z,2.85
2023-02-26T18:34:52.875Z,2.83
2023-02-26T18:37:27.055Z,2.47
2023-02-26T18:39:55.792Z,3.42
2023-02-26T18:42:28.430Z,5.05
2023-02-26T18:44:56.130Z,8.02
2023-02-26T18:47:23.684Z,7.43
2023-02-26T18:49:52.005Z,6.32
2023-02-26T18:52:19.642Z,6.18
2023-02-26T18:54:46.947Z,9.00
2023-02-26T18:57:15.254Z,9.15
2023-02-26T18:59:42.971Z,6.70
2023-02-26T19:02:14.034Z,7.22
2023-02-26T19:04:42.372Z,7.75
2023-02-26T19:07:10.139Z,8.52
2023-02-26T19:09:37.560Z,8.90
2023-02-26T19:12:05.795Z,10.10
2023-02-26T19:14:33.878Z,7.25
2023-02-26T19:17:01.485Z,5.38
2023-02-26T19:19:29.037Z,2.72
2023-02-26T19:21:57.761Z,2.80
2023-02-26T19:24:25.062Z,2.15
2023-02-26T19:26:52.500Z,1.60
2023-02-26T19:29:20.797Z,1.63
2023-02-26T19:31:48.305Z,2.10
2023-02-26T19:34:16.211Z,2.55
2023-02-26T19:36:48.147Z,1.88
2023-02-26T19:39:21.395Z,1.60
2023-02-26T19:41:50.452Z,1.50
2023-02-26T19:44:18.104Z,1.38
2023-02-26T19:46:45.533Z,1.50
2023-02-26T19:49:13.607Z,1.38
2023-02-26T19:51:41.435Z,0.88
2023-02-26T19:54:09.814Z,1.00
2023-02-26T19:56:37.283Z,1.13
2023-02-26T19:59:04.701Z,1.08
2023-02-26T20:01:32.301Z,1.23
2023-02-26T20:04:00.932Z,1.17
2023-02-26T20:06:28.850Z,1.20
2023-02-26T20:08:56.287Z,1.00
2023-02-26T20:11:23.669Z,0.60
2023-02-26T20:13:51.081Z,0.77
2023-02-26T20:16:18.504Z,1.10
2023-02-26T20:18:45.974Z,0.80
2023-02-26T20:21:14.118Z,1.10
2023-02-26T20:23:41.879Z,1.15
2023-02-26T20:26:15.080Z,0.90
2023-02-26T20:28:43.136Z,2.50
2023-02-26T20:31:11.568Z,0.88
2023-02-26T20:33:39.592Z,0.98
2023-02-26T20:36:09.611Z,1.20
2023-02-26T20:38:37.806Z,1.02
2023-02-26T20:41:05.912Z,1.08
2023-02-26T20:43:33.611Z,1.25
2023-02-26T20:46:02.190Z,0.80
2023-02-26T20:48:29.717Z,0.90
2023-02-26T20:51:05.871Z,0.88
2023-02-26T20:53:33.418Z,0.80
2023-02-26T20:56:00.991Z,1.02
2023-02-26T20:58:28.739Z,0.68
2023-02-26T21:00:56.955Z,0.85
2023-02-26T21:03:25.114Z,0.90
2023-02-26T21:05:52.816Z,0.98
2023-02-26T21:08:20.431Z,1.00
2023-02-26T21:10:51.992Z,0.82
2023-02-26T21:13:19.981Z,0.57
2023-02-26T21:15:50.204Z,0.82
2023-02-26T21:18:17.550Z,0.80
2023-02-26T21:20:44.847Z,1.33
2023-02-26T21:23:12.399Z,0.90
2023-02-26T21:25:40.107Z,0.75
2023-02-26T21:28:07.456Z,0.80
2023-02-26T21:30:35.863Z,0.70
2023-02-26T21:33:03.521Z,1.10
2023-02-26T21:35:31.017Z,0.68
2023-02-26T21:37:58.382Z,0.90
2023-02-26T21:40:26.618Z,0.77
